Time;durP1;ratioP1;P1;durP2;ratioP2;P2;SDS_P1;SDS_P2;PMS_P1;PMS_P2;Temp;Humidity;BMP_temperature;BMP_pressure;BME280_temperature;BME280_humidity;BME280_pressure;Samples;Min_cycle;Max_cycle;Signal;HPM_P1;HPM_P2
2021/01/14 00:02:21;;;;;;;1.20;0.90;;;;;;;3.60;100.00;95851.34;5075437;28;20446;-84
2021/01/14 00:04:47;;;;;;;0.80;0.70;;;;;;;3.52;100.00;95855.09;5095638;28;20432;-85
2021/01/14 00:07:14;;;;;;;0.80;0.60;;;;;;;3.44;100.00;95852.28;5079403;28;20568;-84
2021/01/14 00:09:40;;;;;;;1.03;0.80;;;;;;;3.36;100.00;95864.03;5075115;28;20412;-85
2021/01/14 00:12:07;;;;;;;0.73;0.70;;;;;;;3.34;100.00;95855.81;5075558;28;20837;-84
2021/01/14 00:14:34;;;;;;;0.77;0.67;;;;;;;3.14;100.00;95867.66;5076095;28;20480;-84
2021/01/14 00:17:00;;;;;;;0.60;0.40;;;;;;;3.20;100.00;95857.66;5075759;28;20820;-83
2021/01/14 00:19:27;;;;;;;0.83;0.70;;;;;;;3.16;100.00;95865.25;5076203;28;20473;-84
2021/01/14 00:21:53;;;;;;;1.97;0.93;;;;;;;3.11;100.00;95860.69;5076258;28;20524;-84
2021/01/14 00:24:20;;;;;;;1.47;0.90;;;;;;;3.10;100.00;95853.94;5075351;28;20454;-84
2021/01/14 00:26:47;;;;;;;1.23;1.03;;;;;;;3.14;100.00;95855.06;5076403;28;20530;-84
2021/01/14 00:29:14;;;;;;;1.30;1.00;;;;;;;3.17;100.00;95854.06;5079696;28;20429;-83
2021/01/14 00:31:41;;;;;;;1.33;1.17;;;;;;;3.12;100.00;95852.19;5079591;28;20430;-85
2021/01/14 00:34:08;;;;;;;1.57;0.87;;;;;;;3.11;100.00;95864.06;5079984;28;20433;-83
2021/01/14 00:37:50;;;;;;;2.10;1.43;;;;;;;3.12;100.00;95881.50;5079989;28;20464;-84
2021/01/14 00:39:23;;;;;;;3.87;1.30;;;;;;;3.17;100.00;95878.06;5079422;28;20923;-84
2021/01/14 00:41:49;;;;;;;1.00;0.90;;;;;;;3.16;100.00;95879.25;5079187;28;20944;-84
2021/01/14 00:44:16;;;;;;;1.20;1.10;;;;;;;3.09;100.00;95873.78;5079962;28;20412;-84
2021/01/14 00:46:43;;;;;;;1.13;1.00;;;;;;;3.05;100.00;95865.34;5079676;28;20580;-84
2021/01/14 00:49:09;;;;;;;1.10;1.00;;;;;;;3.12;100.00;95844.19;5079839;28;20448;-84
2021/01/14 00:51:36;;;;;;;1.77;1.50;;;;;;;3.11;100.00;95842.75;5080092;28;20528;-83
2021/01/14 00:54:03;;;;;;;1.40;1.20;;;;;;;3.15;100.00;95861.84;5079784;28;20475;-83
2021/01/14 00:56:33;;;;;;;1.47;1.17;;;;;;;3.10;100.00;95869.91;5080180;28;20431;-84
2021/01/14 00:58:59;;;;;;;3.80;1.40;;;;;;;3.14;100.00;95895.03;5080235;28;20412;-84
2021/01/14 01:01:26;;;;;;;1.90;1.50;;;;;;;3.08;100.00;95907.72;5080340;28;20922;-84
2021/01/14 01:03:54;;;;;;;2.97;1.80;;;;;;;3.14;100.00;95912.97;5083428;28;20948;-84
2021/01/14 01:06:21;;;;;;;1.40;1.20;;;;;;;3.11;100.00;95911.31;5081009;28;20489;-84
2021/01/14 01:08:47;;;;;;;2.70;1.60;;;;;;;3.19;100.00;95904.94;5080415;28;20528;-84
2021/01/14 01:11:14;;;;;;;2.03;1.93;;;;;;;3.13;100.00;95901.59;5080853;28;20412;-83
2021/01/14 01:13:41;;;;;;;2.83;1.87;;;;;;;3.07;100.00;95908.94;5079992;28;20544;-84
2021/01/14 01:16:07;;;;;;;4.60;2.50;;;;;;;3.12;100.00;95926.81;5081130;28;20519;-83
2021/01/14 01:18:34;;;;;;;3.70;2.00;;;;;;;3.30;100.00;95932.69;5081518;28;20548;-83
2021/01/14 01:21:05;;;;;;;2.80;2.30;;;;;;;3.38;99.86;95938.91;5080901;28;20818;-83
2021/01/14 01:23:31;;;;;;;4.80;2.90;;;;;;;3.24;99.85;95927.41;5080480;28;20493;-83
2021/01/14 01:25:57;;;;;;;2.77;2.27;;;;;;;3.36;99.42;95928.00;5081564;28;20493;-83
2021/01/14 01:28:24;;;;;;;2.87;2.10;;;;;;;3.42;99.22;95910.00;5083583;28;20570;-83
2021/01/14 01:30:50;;;;;;;3.80;2.93;;;;;;;3.32;99.20;95895.59;5081823;28;20448;-83
2021/01/14 01:33:17;;;;;;;3.90;2.93;;;;;;;3.36;99.60;95901.34;5081559;28;20500;-83
2021/01/14 01:35:43;;;;;;;2.53;2.20;;;;;;;3.38;99.33;95907.63;5080999;28;20548;-84
2021/01/14 01:38:10;;;;;;;3.70;3.10;;;;;;;3.40;99.54;95907.84;5080848;28;20445;-85
2021/01/14 01:40:36;;;;;;;3.47;2.50;;;;;;;3.35;98.97;95918.59;5079817;28;20434;-84
2021/01/14 01:43:03;;;;;;;5.47;2.77;;;;;;;3.43;98.65;95917.50;5081068;28;20519;-84
2021/01/14 01:45:29;;;;;;;3.10;2.60;;;;;;;3.36;98.47;95922.66;5082190;28;20521;-83
2021/01/14 01:47:55;;;;;;;4.83;2.83;;;;;;;3.31;98.32;95918.13;5082886;28;20540;-83
2021/01/14 01:50:22;;;;;;;3.70;2.93;;;;;;;3.31;98.71;95929.53;5080709;28;20456;-83
2021/01/14 01:52:49;;;;;;;4.03;2.20;;;;;;;3.20;98.41;95933.03;5079954;28;20457;-84
2021/01/14 01:55:18;;;;;;;2.97;2.33;;;;;;;3.28;98.27;95938.53;5079371;28;20519;-84
2021/01/14 01:57:45;;;;;;;3.00;2.20;;;;;;;3.30;97.90;95941.41;5079172;28;20775;-84
2021/01/14 02:00:12;;;;;;;5.77;2.30;;;;;;;3.38;96.71;95946.91;5079993;28;20445;-84
2021/01/14 02:02:39;;;;;;;3.20;2.53;;;;;;;3.33;96.32;95937.00;5080900;28;20445;-83
2021/01/14 02:05:06;;;;;;;4.53;2.97;;;;;;;3.24;97.23;95922.09;5080233;28;20473;-83
2021/01/14 02:07:46;;;;;;;4.27;2.50;;;;;;;3.31;96.83;95926.13;5079202;28;20485;-84
2021/01/14 02:10:18;;;;;;;2.90;2.27;;;;;;;3.34;96.51;95935.78;5078051;28;20564;-84
2021/01/14 02:12:57;;;;;;;2.70;2.10;;;;;;;3.31;97.02;95936.78;5090440;28;20413;-84
2021/01/14 02:15:23;;;;;;;5.03;2.60;;;;;;;3.29;97.25;95931.94;5100923;28;20481;-84
2021/01/14 02:17:52;;;;;;;4.93;2.80;;;;;;;3.28;97.22;95925.19;5101092;28;20418;-83
2021/01/14 02:20:20;;;;;;;4.70;2.30;;;;;;;3.14;97.62;95919.03;5100926;28;20428;-83
2021/01/14 02:22:54;;;;;;;6.33;2.73;;;;;;;3.17;97.47;95931.34;5081592;28;20418;-86
2021/01/14 02:25:23;;;;;;;2.83;1.93;;;;;;;3.14;97.55;95936.97;5076291;28;20496;-86
2021/01/14 02:27:51;;;;;;;7.00;2.47;;;;;;;3.02;97.42;95935.63;5076013;28;20481;-86
2021/01/14 02:30:19;;;;;;;4.00;2.50;;;;;;;3.06;97.63;95931.50;5075626;28;20502;-87
2021/01/14 02:32:45;;;;;;;4.27;2.70;;;;;;;2.99;97.56;95926.72;5075824;28;20436;-86
2021/01/14 02:35:12;;;;;;;4.73;2.47;;;;;;;3.03;97.86;95937.09;5075312;28;21035;-87
2021/01/14 02:37:38;;;;;;;2.10;1.80;;;;;;;3.07;97.81;95946.22;5075730;28;20442;-87
2021/01/14 02:40:06;;;;;;;5.03;2.60;;;;;;;3.03;97.59;95972.47;5075972;28;20441;-86
2021/01/14 02:42:32;;;;;;;3.13;2.30;;;;;;;2.90;98.14;95968.94;5075356;28;20445;-86
2021/01/14 02:45:00;;;;;;;2.83;2.53;;;;;;;2.87;98.66;95976.00;5075274;28;20549;-87
2021/01/14 02:47:28;;;;;;;2.93;1.97;;;;;;;3.04;97.82;95957.16;5076155;28;20473;-87
2021/01/14 02:49:58;;;;;;;3.23;1.90;;;;;;;3.06;97.06;95963.47;5074839;28;20450;-86
2021/01/14 02:52:27;;;;;;;3.70;2.30;;;;;;;3.02;96.99;95967.63;5075019;28;20388;-86
2021/01/14 02:54:56;;;;;;;3.90;2.20;;;;;;;2.97;96.75;95977.13;5075045;28;20446;-86
2021/01/14 02:57:26;;;;;;;4.00;2.40;;;;;;;2.96;96.94;95970.34;5075132;28;20437;-86
2021/01/14 02:59:53;;;;;;;7.03;2.20;;;;;;;2.93;97.09;95958.00;5074994;28;20422;-86
2021/01/14 03:02:21;;;;;;;5.00;2.50;;;;;;;2.92;97.26;95947.84;5075468;28;20441;-87
2021/01/14 03:04:47;;;;;;;4.00;3.00;;;;;;;2.92;96.84;95945.91;5074990;28;20453;-86
2021/01/14 03:07:14;;;;;;;4.83;2.33;;;;;;;2.87;97.38;95941.34;5075090;28;20489;-86
2021/01/14 03:09:40;;;;;;;3.20;2.37;;;;;;;3.01;96.57;95958.88;5075056;28;20456;-86
2021/01/14 03:12:06;;;;;;;4.43;2.40;;;;;;;2.98;97.04;95961.84;5074848;28;20441;-86
2021/01/14 03:14:33;;;;;;;3.83;2.63;;;;;;;2.97;96.87;95960.41;5074997;28;20477;-86
2021/01/14 03:16:59;;;;;;;3.60;2.50;;;;;;;2.99;97.00;95958.69;5075034;28;20924;-87
2021/01/14 03:19:26;;;;;;;6.33;3.00;;;;;;;2.87;96.83;95970.66;5074797;28;20434;-87
2021/01/14 03:21:58;;;;;;;4.63;2.90;;;;;;;2.80;97.63;95971.19;5074706;28;20518;-86
2021/01/14 03:24:25;;;;;;;4.37;2.87;;;;;;;2.84;97.29;95976.97;5074523;28;20422;-87
2021/01/14 03:26:51;;;;;;;5.63;2.83;;;;;;;2.88;97.04;95974.75;5074717;28;20534;-86
2021/01/14 03:29:17;;;;;;;4.40;3.13;;;;;;;2.87;97.07;95970.66;5074832;28;20467;-87
2021/01/14 03:31:44;;;;;;;3.40;2.47;;;;;;;2.92;96.58;95980.53;5079348;28;20445;-86
2021/01/14 03:34:10;;;;;;;4.47;2.87;;;;;;;2.95;95.88;95963.56;5074373;28;20411;-86
2021/01/14 03:36:56;;;;;;;3.87;2.50;;;;;;;2.90;96.20;95968.94;5074551;28;20465;-87
2021/01/14 03:39:23;;;;;;;3.10;2.37;;;;;;;2.83;96.80;95969.47;5074690;28;20426;-87
2021/01/14 03:41:50;;;;;;;9.63;3.07;;;;;;;2.60;97.54;95976.94;5074205;28;20465;-86
2021/01/14 03:44:17;;;;;;;7.07;2.90;;;;;;;2.67;98.47;95984.38;5074171;28;20452;-86
2021/01/14 03:46:45;;;;;;;4.10;2.93;;;;;;;2.62;98.43;95975.22;5074150;28;20465;-86
2021/01/14 03:49:12;;;;;;;10.00;3.13;;;;;;;2.62;98.44;95982.50;5074112;28;20440;-87
2021/01/14 03:51:39;;;;;;;4.07;2.00;;;;;;;2.72;98.32;95981.66;5074457;28;20544;-87
2021/01/14 03:54:06;;;;;;;6.03;2.73;;;;;;;2.75;98.30;95979.97;5074293;28;20437;-86
2021/01/14 03:56:39;;;;;;;3.90;3.00;;;;;;;2.64;98.59;95972.78;5074316;28;20472;-86
2021/01/14 03:59:06;;;;;;;6.80;3.53;;;;;;;2.61;98.76;95981.75;5074089;28;20422;-86
2021/01/14 04:01:32;;;;;;;7.93;3.70;;;;;;;2.57;99.44;95988.56;5074108;28;20913;-86
2021/01/14 04:03:59;;;;;;;10.40;3.40;;;;;;;2.55;99.55;95993.66;5073997;28;20422;-86
2021/01/14 04:06:34;;;;;;;4.90;3.17;;;;;;;2.64;99.62;95990.69;5074223;28;20489;-86
2021/01/14 04:09:02;;;;;;;4.97;2.70;;;;;;;2.68;99.39;95996.47;5074205;28;20436;-87
2021/01/14 04:11:29;;;;;;;6.83;3.73;;;;;;;2.61;99.63;95997.00;5074593;28;20434;-86
2021/01/14 04:13:55;;;;;;;7.67;3.50;;;;;;;2.64;99.62;95991.41;5074102;28;20464;-85
2021/01/14 04:16:22;;;;;;;4.83;3.00;;;;;;;2.50;99.72;95989.84;5074539;28;20462;-86
2021/01/14 04:18:48;;;;;;;11.30;3.43;;;;;;;2.57;99.87;95991.22;5075175;28;20472;-86
2021/01/14 04:21:15;;;;;;;7.57;4.03;;;;;;;2.48;99.84;95994.91;5074822;28;20460;-86
2021/01/14 04:23:42;;;;;;;4.13;2.83;;;;;;;2.48;100.00;96010.91;5076821;28;20594;-86
2021/01/14 04:26:10;;;;;;;5.10;2.90;;;;;;;2.50;100.00;96005.09;5075480;28;20461;-86
2021/01/14 04:28:37;;;;;;;6.27;3.20;;;;;;;2.57;100.00;96015.19;5075368;28;20434;-87
2021/01/14 04:31:04;;;;;;;5.03;4.20;;;;;;;2.49;100.00;96014.28;5075331;28;20429;-86
2021/01/14 04:33:30;;;;;;;6.70;3.80;;;;;;;2.42;100.00;96014.81;5074042;28;20445;-86
2021/01/14 04:35:58;;;;;;;5.77;3.23;;;;;;;2.44;100.00;96029.09;5074332;28;20469;-85
2021/01/14 04:38:26;;;;;;;6.57;4.23;;;;;;;2.44;100.00;96033.69;5074181;28;20437;-85
2021/01/14 04:40:56;;;;;;;8.60;3.70;;;;;;;2.43;100.00;96026.91;5074245;28;20482;-86
2021/01/14 04:43:25;;;;;;;8.10;3.53;;;;;;;2.48;100.00;96020.81;5073893;28;20999;-86
2021/01/14 04:45:55;;;;;;;6.00;4.27;;;;;;;2.54;100.00;96019.56;5073894;28;20453;-87
2021/01/14 04:48:22;;;;;;;6.20;4.67;;;;;;;2.44;100.00;96020.38;5074220;28;20486;-86
2021/01/14 04:50:49;;;;;;;8.53;3.53;;;;;;;2.37;100.00;96015.56;5073839;28;20430;-86
2021/01/14 04:53:19;;;;;;;6.97;3.20;;;;;;;2.32;100.00;96019.00;5074454;28;20512;-86
2021/01/14 04:55:48;;;;;;;5.77;3.60;;;;;;;2.29;100.00;96022.66;5075108;28;20510;-85
2021/01/14 04:58:17;;;;;;;8.13;4.53;;;;;;;2.36;100.00;96020.16;5074200;28;20441;-86
2021/01/14 05:00:49;;;;;;;7.73;4.20;;;;;;;2.26;100.00;96023.63;5074100;28;20495;-87
2021/01/14 05:03:21;;;;;;;3.83;2.97;;;;;;;2.35;100.00;96029.38;5073997;28;20482;-85
2021/01/14 05:05:49;;;;;;;6.30;4.27;;;;;;;2.37;100.00;96031.56;5073970;28;20464;-86
2021/01/14 05:08:16;;;;;;;8.23;4.40;;;;;;;2.21;100.00;96025.09;5073736;28;20535;-87
2021/01/14 05:10:44;;;;;;;6.07;4.00;;;;;;;2.16;100.00;96021.25;5074383;28;20475;-86
2021/01/14 05:13:11;;;;;;;7.10;4.43;;;;;;;2.10;100.00;96020.56;5084010;28;20461;-83
2021/01/14 05:15:39;;;;;;;5.23;4.13;;;;;;;2.12;100.00;96031.44;5101502;28;20453;-83
2021/01/14 05:18:07;;;;;;;7.20;4.30;;;;;;;2.29;100.00;96027.97;5101427;28;20464;-83
2021/01/14 05:20:33;;;;;;;5.63;4.07;;;;;;;2.36;100.00;96041.47;5101824;28;20429;-83
2021/01/14 05:23:01;;;;;;;8.07;3.97;;;;;;;2.36;100.00;96040.75;5094040;28;20457;-83
2021/01/14 05:25:28;;;;;;;8.50;4.23;;;;;;;2.32;100.00;96040.31;5101124;28;20467;-84
2021/01/14 05:27:55;;;;;;;8.77;4.40;;;;;;;2.33;100.00;96053.09;5101388;28;20491;-83
2021/01/14 05:30:22;;;;;;;9.70;4.77;;;;;;;2.36;100.00;96054.78;5090511;28;20433;-87
2021/01/14 05:32:49;;;;;;;7.77;5.20;;;;;;;2.23;100.00;96051.94;5077632;28;20426;-87
2021/01/14 05:35:27;;;;;;;5.77;3.73;;;;;;;2.42;100.00;96068.06;5077791;28;20488;-86
2021/01/14 05:38:00;;;;;;;10.77;3.67;;;;;;;2.23;100.00;96077.81;5078663;28;20410;-87
2021/01/14 05:40:28;;;;;;;7.40;4.53;;;;;;;2.28;100.00;96077.09;5077631;28;20426;-86
2021/01/14 05:43:04;;;;;;;7.57;4.60;;;;;;;2.28;100.00;96082.41;5077839;28;20434;-86
2021/01/14 05:45:31;;;;;;;6.90;4.50;;;;;;;2.42;100.00;96073.38;5077349;28;20465;-86
2021/01/14 05:48:10;;;;;;;6.33;3.30;;;;;;;2.37;100.00;96074.13;5077823;28;20973;-86
2021/01/14 05:50:44;;;;;;;4.77;3.10;;;;;;;2.36;100.00;96070.75;5078170;28;20444;-87
2021/01/14 05:53:15;;;;;;;4.90;3.77;;;;;;;2.31;100.00;96063.53;5078810;28;20437;-85
2021/01/14 05:55:44;;;;;;;7.63;4.50;;;;;;;2.35;100.00;96065.94;5080383;28;20514;-86
2021/01/14 05:58:17;;;;;;;9.13;4.60;;;;;;;2.36;100.00;96064.69;5080672;28;20438;-85
2021/01/14 06:00:44;;;;;;;6.80;4.47;;;;;;;2.29;100.00;96057.94;5094583;28;20422;-84
2021/01/14 06:03:27;;;;;;;9.83;4.30;;;;;;;2.28;100.00;96056.53;5096512;28;20434;-86
2021/01/14 06:05:56;;;;;;;10.83;4.53;;;;;;;2.27;100.00;96057.72;5094256;28;20460;-86
2021/01/14 06:08:25;;;;;;;9.13;4.33;;;;;;;2.33;100.00;96073.66;5080276;28;20492;-87
2021/01/14 06:10:52;;;;;;;9.50;4.13;;;;;;;2.36;100.00;96084.06;5076690;28;20967;-87
2021/01/14 06:13:19;;;;;;;7.03;4.33;;;;;;;2.32;100.00;96082.88;5077102;28;20880;-85
2021/01/14 06:15:58;;;;;;;6.13;4.43;;;;;;;2.29;100.00;96067.91;5077770;28;20448;-86
2021/01/14 06:18:24;;;;;;;9.87;4.60;;;;;;;2.27;100.00;96071.03;5077278;28;20422;-86
2021/01/14 06:20:53;;;;;;;8.93;5.33;;;;;;;2.32;100.00;96074.91;5076776;28;20432;-86
2021/01/14 06:23:22;;;;;;;9.40;4.87;;;;;;;2.28;100.00;96079.75;5077277;28;20453;-86
2021/01/14 06:25:50;;;;;;;9.27;5.80;;;;;;;2.41;100.00;96072.66;5076542;28;20469;-88
2021/01/14 06:28:20;;;;;;;8.20;4.90;;;;;;;2.25;100.00;96089.44;5076970;28;20469;-87
2021/01/14 06:31:08;;;;;;;10.00;5.23;;;;;;;2.14;100.00;96089.47;5076760;28;20445;-87
2021/01/14 06:33:35;;;;;;;5.70;4.50;;;;;;;2.28;100.00;96096.44;5069987;28;20532;-86
2021/01/14 06:36:09;;;;;;;9.40;6.10;;;;;;;2.23;100.00;96091.13;5076919;28;20481;-87
2021/01/14 06:38:44;;;;;;;7.50;5.20;;;;;;;2.31;100.00;96098.13;5076699;28;20880;-87
2021/01/14 06:41:15;;;;;;;10.00;4.80;;;;;;;2.34;100.00;96107.06;5077061;28;20926;-85
2021/01/14 06:43:42;;;;;;;7.27;4.50;;;;;;;2.40;100.00;96116.47;5077704;28;20422;-86
2021/01/14 06:46:15;;;;;;;5.70;4.33;;;;;;;2.36;100.00;96108.00;5076403;28;20466;-86
2021/01/14 06:48:49;;;;;;;8.57;5.00;;;;;;;2.39;100.00;96119.63;5088205;28;20417;-86
2021/01/14 06:51:23;;;;;;;5.63;4.13;;;;;;;2.32;100.00;96123.50;5080687;28;20425;-87
2021/01/14 06:53:56;;;;;;;7.70;5.17;;;;;;;2.32;100.00;96118.19;5082811;28;20409;-85
2021/01/14 06:56:24;;;;;;;9.20;5.77;;;;;;;2.34;100.00;96107.06;5084779;28;20462;-86
2021/01/14 06:58:52;;;;;;;8.63;6.17;;;;;;;2.31;100.00;96108.03;5087275;28;20442;-87
2021/01/14 07:01:19;;;;;;;8.77;5.00;;;;;;;2.26;100.00;96125.47;5078673;28;20429;-87
2021/01/14 07:03:57;;;;;;;6.50;4.77;;;;;;;2.19;100.00;96118.03;5077020;28;20968;-87
2021/01/14 07:06:27;;;;;;;14.13;5.30;;;;;;;2.14;100.00;96121.41;5078152;28;20461;-87
2021/01/14 07:09:19;;;;;;;9.50;4.53;;;;;;;2.06;100.00;96117.81;5077323;28;20495;-87
2021/01/14 07:11:50;;;;;;;12.23;5.37;;;;;;;2.06;100.00;96107.91;5078983;28;20532;-90
2021/01/14 07:14:23;;;;;;;7.50;5.40;;;;;;;1.98;100.00;96108.88;5077317;28;20461;-87
2021/01/14 07:16:58;;;;;;;6.50;4.97;;;;;;;2.01;100.00;96116.63;5076539;28;20430;-86
2021/01/14 07:19:24;;;;;;;10.10;5.40;;;;;;;2.12;100.00;96123.84;5077272;28;20853;-86
2021/01/14 07:21:53;;;;;;;13.07;5.50;;;;;;;2.32;100.00;96126.19;5076336;28;20438;-86
2021/01/14 07:24:25;;;;;;;11.10;6.03;;;;;;;2.52;99.86;96128.50;5077649;28;20414;-87
2021/01/14 07:26:52;;;;;;;9.13;6.40;;;;;;;2.72;98.74;96120.16;5076071;28;20495;-87
2021/01/14 07:29:19;;;;;;;11.50;6.70;;;;;;;2.70;98.16;96129.88;5076850;28;20910;-86
2021/01/14 07:31:47;;;;;;;7.60;5.73;;;;;;;2.73;97.44;96128.88;5078718;28;20487;-90
2021/01/14 07:34:33;;;;;;;7.87;5.33;;;;;;;2.65;96.92;96139.34;5077452;28;20450;-88
2021/01/14 07:37:00;;;;;;;7.00;6.17;;;;;;;2.68;96.22;96142.97;5076980;28;20513;-88
2021/01/14 07:39:45;;;;;;;6.07;5.00;;;;;;;2.74;95.90;96151.66;5082878;28;20442;-87
2021/01/14 07:42:19;;;;;;;14.33;5.53;;;;;;;2.72;95.86;96154.78;5079528;28;20434;-87
2021/01/14 07:44:50;;;;;;;12.53;5.90;;;;;;;2.72;96.09;96165.44;5077878;28;20462;-88
2021/01/14 07:47:23;;;;;;;9.93;6.73;;;;;;;2.65;96.59;96179.28;5079259;28;20485;-90
2021/01/14 07:49:50;;;;;;;9.97;5.40;;;;;;;2.59;96.43;96170.59;5080725;28;20421;-90
2021/01/14 07:52:29;;;;;;;7.07;5.17;;;;;;;2.51;96.79;96171.59;5080135;28;20418;-85
2021/01/14 07:55:00;;;;;;;13.20;5.80;;;;;;;2.48;96.80;96167.25;5077119;28;20474;-87
2021/01/14 07:57:35;;;;;;;8.10;6.00;;;;;;;2.41;97.18;96170.44;5078594;28;20525;-89
2021/01/14 08:00:08;;;;;;;6.83;5.93;;;;;;;2.45;96.89;96176.22;5076135;28;20418;-90
2021/01/14 08:03:11;;;;;;;9.67;6.90;;;;;;;2.40;97.82;96172.38;5078995;28;20442;-92
2021/01/14 08:05:39;;;;;;;8.90;5.47;;;;;;;2.33;98.09;96167.56;5078209;28;20987;-91
2021/01/14 08:08:26;;;;;;;12.17;6.30;;;;;;;2.25;98.10;96165.91;5075427;28;20915;-90
2021/01/14 08:11:11;;;;;;;9.87;6.30;;;;;;;2.37;98.69;96161.97;5076027;28;20434;-90
2021/01/14 08:14:03;;;;;;;8.30;6.40;;;;;;;2.38;98.33;96182.78;5081953;28;20436;-89
2021/01/14 08:16:34;;;;;;;8.97;6.03;;;;;;;2.34;97.80;96184.25;5098480;28;20473;-91
2021/01/14 08:19:11;;;;;;;6.60;5.57;;;;;;;2.40;97.76;96182.31;5098293;28;20429;-89
2021/01/14 08:21:38;;;;;;;13.07;7.20;;;;;;;2.39;97.55;96188.81;5098344;28;20429;-89
2021/01/14 08:24:05;;;;;;;7.83;6.47;;;;;;;2.35;97.00;96186.41;5084995;28;20451;-89
2021/01/14 08:26:51;;;;;;;10.47;6.63;;;;;;;2.28;96.38;96180.88;5078716;28;20497;-88
2021/01/14 08:29:35;;;;;;;7.77;6.17;;;;;;;2.31;95.91;96188.63;5078875;28;20440;-90
2021/01/14 08:32:02;;;;;;;9.87;5.70;;;;;;;2.38;95.60;96182.06;5084264;28;20441;-87
2021/01/14 08:34:28;;;;;;;9.67;5.33;;;;;;;2.36;95.81;96176.50;5077625;28;20452;-84
2021/01/14 08:36:56;;;;;;;7.70;5.60;;;;;;;2.27;95.12;96174.09;5075695;28;20935;-82
2021/01/14 08:39:24;;;;;;;10.50;6.13;;;;;;;2.13;94.68;96194.50;5077040;28;20452;-86
2021/01/14 08:41:52;;;;;;;9.90;5.93;;;;;;;2.13;94.58;96200.50;5077456;28;20449;-87
2021/01/14 08:44:28;;;;;;;9.43;5.63;;;;;;;2.08;94.80;96214.56;5076189;28;20445;-86
2021/01/14 08:46:55;;;;;;;6.73;5.23;;;;;;;2.07;94.78;96217.69;5077108;28;20492;-88
2021/01/14 08:49:21;;;;;;;8.97;5.53;;;;;;;2.01;93.95;96222.31;5078255;28;20433;-88
2021/01/14 08:51:48;;;;;;;16.80;6.60;;;;;;;2.02;94.81;96213.13;5079344;28;20878;-88
2021/01/14 08:54:15;;;;;;;14.60;7.07;;;;;;;1.89;94.75;96212.88;5080421;28;20444;-87
2021/01/14 08:56:41;;;;;;;8.60;6.00;;;;;;;1.99;94.85;96219.41;5079573;28;20472;-86
2021/01/14 08:59:14;;;;;;;10.03;6.77;;;;;;;1.80;95.58;96216.53;5086064;28;20941;-88
2021/01/14 09:01:40;;;;;;;9.53;5.60;;;;;;;1.71;95.93;96224.75;5085879;28;20452;-90
2021/01/14 09:04:09;;;;;;;11.20;5.87;;;;;;;1.77;95.92;96228.13;5084895;28;20443;-87
2021/01/14 09:06:38;;;;;;;12.23;5.87;;;;;;;1.79;96.13;96235.63;5084608;28;20500;-88
2021/01/14 09:09:06;;;;;;;11.60;5.83;;;;;;;1.82;96.72;96232.72;5085267;28;20433;-91
2021/01/14 09:11:34;;;;;;;17.73;7.17;;;;;;;1.90;97.31;96240.94;5085114;28;20486;-89
2021/01/14 09:14:01;;;;;;;14.50;6.70;;;;;;;1.83;96.92;96236.84;5080531;28;20865;-89
2021/01/14 09:16:30;;;;;;;12.33;6.80;;;;;;;1.81;96.99;96233.22;5083329;28;21052;-88
2021/01/14 09:18:56;;;;;;;12.60;6.93;;;;;;;1.81;97.73;96246.50;5080921;28;20434;-89
2021/01/14 09:21:22;;;;;;;10.50;7.60;;;;;;;1.92;97.80;96235.84;5080465;28;20459;-90
2021/01/14 09:23:49;;;;;;;11.30;8.20;;;;;;;2.03;97.42;96247.22;5078994;28;20523;-86
2021/01/14 09:26:18;;;;;;;12.50;7.27;;;;;;;1.94;97.30;96258.09;5078987;28;20838;-85
2021/01/14 09:28:49;;;;;;;14.03;8.50;;;;;;;1.76;97.99;96253.28;5081618;28;20473;-90
2021/01/14 09:31:16;;;;;;;10.40;7.67;;;;;;;1.86;98.29;96257.16;5082011;28;20486;-89
2021/01/14 09:33:44;;;;;;;19.43;9.40;;;;;;;1.92;98.37;96255.22;5082363;28;20434;-87
2021/01/14 09:36:12;;;;;;;11.90;6.60;;;;;;;2.09;98.40;96265.84;5081362;28;20469;-88
2021/01/14 09:38:41;;;;;;;10.77;7.63;;;;;;;2.09;97.84;96269.22;5082546;28;20433;-88
2021/01/14 09:41:08;;;;;;;14.43;6.97;;;;;;;2.07;97.72;96273.56;5081377;28;20445;-89
2021/01/14 09:43:38;;;;;;;12.77;7.67;;;;;;;2.14;97.67;96279.13;5088196;28;20873;-87
2021/01/14 09:46:05;;;;;;;12.07;8.27;;;;;;;2.96;100.00;96284.03;5080063;28;20533;-88
2021/01/14 09:48:33;;;;;;;8.60;6.30;;;;;;;3.12;99.22;96288.56;5061847;28;20481;-88
2021/01/14 09:51:07;;;;;;;10.67;6.93;;;;;;;2.67;94.91;96301.31;5060286;28;20458;-88
2021/01/14 09:53:33;;;;;;;18.23;8.63;;;;;;;2.40;96.47;96297.50;5066349;28;20441;-88
2021/01/14 09:56:03;;;;;;;10.00;6.20;;;;;;;2.36;94.64;96293.63;5079848;28;20457;-88
2021/01/14 09:58:31;;;;;;;12.70;7.17;;;;;;;2.19;94.20;96301.66;5080295;28;20522;-91
2021/01/14 10:01:02;;;;;;;14.40;6.63;;;;;;;2.25;96.15;96297.03;5081887;28;20433;-92
2021/01/14 10:03:32;;;;;;;9.10;6.80;;;;;;;2.25;95.55;96289.06;5082110;28;20517;-92
2021/01/14 10:06:01;;;;;;;17.80;8.10;;;;;;;2.28;95.20;96296.06;5088482;28;20781;-91
2021/01/14 10:08:30;;;;;;;9.80;6.70;;;;;;;2.22;95.90;96307.94;5082516;28;20485;-91
2021/01/14 10:10:57;;;;;;;8.77;6.90;;;;;;;2.40;95.88;96304.75;5082367;28;20445;-93
2021/01/14 10:13:24;;;;;;;9.50;6.50;;;;;;;2.53;92.96;96302.31;5081943;28;20456;-90
2021/01/14 10:15:50;;;;;;;12.80;7.70;;;;;;;2.44;93.10;96307.91;5091512;28;20454;-95
2021/01/14 10:18:25;;;;;;;8.97;6.40;;;;;;;2.45;94.17;96301.34;5095098;28;20925;-91
2021/01/14 10:20:59;;;;;;;10.10;7.10;;;;;;;2.42;93.07;96300.38;5082082;28;20501;-89
2021/01/14 10:23:27;;;;;;;14.10;6.93;;;;;;;2.25;94.39;96297.03;5082298;28;20442;-88
2021/01/14 10:25:55;;;;;;;8.90;6.10;;;;;;;2.33;94.88;96289.28;5082977;28;20428;-88
2021/01/14 10:28:22;;;;;;;10.60;6.10;;;;;;;2.44;94.82;96292.66;5080164;28;21012;-89
2021/01/14 10:30:49;;;;;;;9.37;5.43;;;;;;;2.55;94.68;96295.28;5084201;28;20448;-92
2021/01/14 10:33:16;;;;;;;9.63;5.40;;;;;;;2.48;93.40;96298.44;5086396;28;20437;-88
2021/01/14 10:35:43;;;;;;;9.10;5.93;;;;;;;2.46;93.39;96305.47;5081028;28;20489;-89
2021/01/14 10:38:11;;;;;;;7.13;5.23;;;;;;;2.52;92.68;96308.84;5080885;28;20445;-87
2021/01/14 10:40:41;;;;;;;11.67;5.70;;;;;;;2.46;92.62;96310.78;5079641;28;20533;-90
2021/01/14 10:43:08;;;;;;;13.23;5.60;;;;;;;2.31;92.77;96313.00;5078588;28;20449;-87
2021/01/14 10:45:36;;;;;;;8.33;5.73;;;;;;;2.40;92.43;96308.16;5080278;28;20465;-88
2021/01/14 10:48:11;;;;;;;11.63;5.50;;;;;;;2.51;91.69;96310.78;5078990;28;20552;-87
2021/01/14 10:50:43;;;;;;;8.43;5.83;;;;;;;2.57;92.06;96321.41;5080722;28;20432;-89
2021/01/14 10:53:10;;;;;;;10.43;5.90;;;;;;;2.45;91.75;96315.38;5083881;28;20911;-89
2021/01/14 10:55:37;;;;;;;7.50;6.33;;;;;;;2.43;92.95;96336.47;5083946;28;20451;-88
2021/01/14 10:58:05;;;;;;;12.97;7.07;;;;;;;2.52;92.22;96335.47;5082371;28;20445;-89
2021/01/14 11:00:36;;;;;;;12.47;7.47;;;;;;;2.10;91.62;96337.19;5079764;28;20446;-90
2021/01/14 11:03:07;;;;;;;8.17;5.97;;;;;;;2.13;92.70;96330.91;5080767;28;20433;-86
2021/01/14 11:05:43;;;;;;;19.90;7.47;;;;;;;2.21;92.45;96333.81;5083816;28;20464;-85
2021/01/14 11:08:10;;;;;;;15.47;7.03;;;;;;;2.22;92.12;96337.94;5083957;28;20519;-87
2021/01/14 11:10:37;;;;;;;17.60;8.10;;;;;;;1.96;93.12;96335.50;5086242;28;20430;-91
2021/01/14 11:13:06;;;;;;;16.10;7.30;;;;;;;2.01;93.30;96323.41;5083036;28;20524;-90
2021/01/14 11:15:32;;;;;;;12.03;6.73;;;;;;;2.04;92.69;96320.50;5088225;28;20465;-93
2021/01/14 11:18:00;;;;;;;17.70;7.30;;;;;;;2.19;92.29;96308.91;5078076;28;20438;-90
2021/01/14 11:20:26;;;;;;;11.30;6.33;;;;;;;2.32;92.53;96309.13;5078637;28;20453;-87
2021/01/14 11:22:53;;;;;;;13.20;6.87;;;;;;;2.67;96.14;96319.94;5077014;28;20440;-88
2021/01/14 11:25:19;;;;;;;9.10;6.10;;;;;;;3.57;93.78;96321.75;5079096;28;20449;-90
2021/01/14 11:27:46;;;;;;;16.73;8.53;;;;;;;3.32;88.86;96325.53;5079565;28;20465;-91
2021/01/14 11:30:15;;;;;;;11.00;6.87;;;;;;;2.53;88.73;96312.97;5081509;28;20476;-91
2021/01/14 11:32:43;;;;;;;12.63;6.87;;;;;;;2.61;90.23;96327.97;5081699;28;20898;-90
2021/01/14 11:35:11;;;;;;;6.63;5.20;;;;;;;2.47;90.12;96314.91;5085882;28;21091;-91
2021/01/14 11:37:38;;;;;;;9.43;7.17;;;;;;;2.47;89.36;96310.31;5081092;28;20511;-85
2021/01/14 11:40:06;;;;;;;10.10;6.10;;;;;;;2.40;89.68;96312.75;5081559;28;20453;-86
2021/01/14 11:42:32;;;;;;;10.73;7.40;;;;;;;2.37;89.78;96309.13;5096809;28;20440;-87
2021/01/14 11:44:59;;;;;;;13.33;7.53;;;;;;;2.37;90.58;96311.78;5098437;28;20479;-91
2021/01/14 11:47:26;;;;;;;17.80;7.97;;;;;;;2.19;90.34;96316.88;5098263;28;20469;-90